| time (UTC) | temp C | wind direction | speed KPH | gust KPH | rain 1hr cm | rain 24hr cm | rain mn cm | humidity % | barometer mb |
| 20260509213703 | 29 | 117 | 8.0 | 12.9 | 0.00 | 0.03 | 0.03 | 31 | 1010.6 |
| 20260509213204 | 29 | 130 | 4.8 | 19.3 | 0.00 | 0.03 | 0.03 | 31 | 1010.6 |
| 20260509210703 | 29 | 143 | 4.8 | 11.3 | 0.00 | 0.03 | 0.03 | 31 | 1010.9 |
| 20260509210204 | 29 | 149 | 9.7 | 20.9 | 0.00 | 0.03 | 0.03 | 31 | 1011.0 |
| 20260509203703 | 29 | 137 | 11.3 | 20.9 | 0.00 | 0.03 | 0.03 | 32 | 1011.3 |
| 20260509203204 | 29 | 109 | 4.8 | 19.3 | 0.00 | 0.03 | 0.03 | 31 | 1011.3 |
| 20260509200704 | 29 | 116 | 4.8 | 16.1 | 0.00 | 0.03 | 0.03 | 32 | 1011.6 |
| 20260509193704 | 28 | 126 | 8.0 | 14.5 | 0.00 | 0.03 | 0.03 | 30 | 1012.1 |
| 20260509193203 | 28 | 141 | 3.2 | 19.3 | 0.00 | 0.03 | 0.03 | 34 | 1012.2 |
| 20260509190704 | 28 | 168 | 4.8 | 12.9 | 0.00 | 0.03 | 0.03 | 34 | 1012.2 |
| 20260509190203 | 28 | 156 | 6.4 | 19.3 | 0.00 | 0.03 | 0.03 | 35 | 1012.2 |
| 20260509183704 | 27 | 145 | 1.6 | 12.9 | 0.00 | 0.03 | 0.03 | 37 | 1012.5 |
| 20260509183203 | 28 | 160 | 3.2 | 16.1 | 0.00 | 0.03 | 0.03 | 38 | 1012.7 |
| 20260509180203 | 27 | 161 | 8.0 | 19.3 | 0.00 | 0.03 | 0.03 | 42 | 1013.3 |
| 20260509173703 | 27 | 155 | 4.8 | 19.3 | 0.00 | 0.03 | 0.03 | 46 | 1013.3 |
| 20260509173203 | 27 | 136 | 8.0 | 19.3 | 0.00 | 0.03 | 0.03 | 42 | 1013.4 |
| 20260509170704 | 26 | 170 | 3.2 | 12.9 | 0.00 | 0.03 | 0.03 | 41 | 1013.6 |
| 20260509170203 | 26 | 134 | 6.4 | 16.1 | 0.00 | 0.03 | 0.03 | 36 | 1013.6 |
| 20260509163703 | 27 | 197 | 4.8 | 14.5 | 0.00 | 0.03 | 0.03 | 45 | 1014.0 |
| 20260509163204 | 27 | 125 | 6.4 | 12.9 | 0.00 | 0.03 | 0.03 | 43 | 1014.0 |
| 20260509160703 | 26 | 143 | 6.4 | 9.7 | 0.00 | 0.03 | 0.03 | 51 | 1014.0 |
| 20260509160204 | 25 | 160 | 1.6 | 9.7 | 0.00 | 0.03 | 0.03 | 54 | 1013.9 |
| 20260509153704 | 24 | 143 | 4.8 | 11.3 | 0.00 | 0.03 | 0.03 | 55 | 1013.5 |
| 20260509153204 | 24 | 170 | 3.2 | 9.7 | 0.00 | 0.03 | 0.03 | 55 | 1013.5 |
| 20260509150703 | 23 | 156 | 4.8 | 8.0 | 0.00 | 0.03 | 0.03 | 66 | 1013.4 |
| 20260509150204 | 23 | 150 | 3.2 | 4.8 | 0.00 | 0.03 | 0.03 | 66 | 1013.5 |
| 20260509143703 | 21 | 110 | 0.0 | 3.2 | 0.00 | 0.03 | 0.03 | 75 | 1013.5 |
| 20260509140704 | 18 | 111 | 1.6 | 3.2 | 0.00 | 0.03 | 0.03 | 89 | 1013.5 |
| 20260509140203 | 17 | 109 | 1.6 | 3.2 | 0.00 | 0.03 | 0.03 | 90 | 1013.4 |
| 20260509133203 | 16 | 108 | 1.6 | 3.2 | 0.00 | 0.03 | 0.03 | 92 | 1013.4 |
| 20260509130704 | 14 | 108 | 1.6 | 3.2 | 0.00 | 0.03 | 0.03 | 92 | 1013.4 |
| 20260509130204 | 14 | 108 | 0.0 | 4.8 | 0.00 | 0.03 | 0.03 | 92 | 1013.3 |
| 20260509123704 | 12 | 111 | 1.6 | 3.2 | 0.00 | 0.03 | 0.03 | 92 | 1012.9 |
| 20260509120704 | 11 | 113 | 0.0 | 0.0 | 0.03 | 0.03 | 0.03 | 91 | 1012.6 |
| 20260509120204 | 11 | 113 | 0.0 | 0.0 | 0.03 | 0.03 | 0.03 | 90 | 1012.6 |
| 20260509113703 | 11 | 113 | 0.0 | 0.0 | 0.03 | 0.03 | 0.03 | 90 | 1012.5 |
| 20260509113203 | 11 | 113 | 0.0 | 1.6 | 0.03 | 0.03 | 0.03 | 90 | 1012.3 |
| 20260509110704 | 11 | 113 | 0.0 | 0.0 | 0.00 | 0.00 | 0.00 | 90 | 1012.2 |
| 20260509110203 | 11 | 113 | 0.0 | 0.0 | 0.00 | 0.00 | 0.00 | 90 | 1012.1 |
| 20260509103703 | 11 | 114 | 0.0 | 0.0 | 0.00 | 0.00 | 0.00 | 90 | 1012.3 |
| 20260509100703 | 12 | 116 | 0.0 | 0.0 | 0.00 | 0.00 | 0.00 | 90 | 1012.4 |
| 20260509093703 | 13 | 118 | 0.0 | 0.0 | 0.00 | 0.00 | 0.00 | 90 | 1012.6 |
| 20260509093204 | 13 | 118 | 0.0 | 1.6 | 0.00 | 0.00 | 0.00 | 90 | 1012.6 |
| 20260509090703 | 13 | 113 | 1.6 | 3.2 | 0.00 | 0.00 | 0.00 | 90 | 1012.7 |
| 20260509090203 | 13 | 113 | 1.6 | 3.2 | 0.00 | 0.00 | 0.00 | 90 | 1012.7 |
| 20260509083704 | 13 | 115 | 0.0 | 0.0 | 0.00 | 0.00 | 0.00 | 90 | 1012.9 |
| 20260509083203 | 13 | 116 | 0.0 | 0.0 | 0.00 | 0.00 | 0.00 | 90 | 1012.9 |
| 20260509080703 | 13 | 118 | 0.0 | 0.0 | 0.00 | 0.00 | 0.00 | 89 | 1013.1 |
| 20260509073703 | 13 | 118 | 0.0 | 1.6 | 0.00 | 0.00 | 0.00 | 89 | 1013.2 |
| 20260509063703 | 14 | 119 | 1.6 | 3.2 | 0.00 | 0.00 | 0.00 | 88 | 1013.1 |
| 20260509063203 | 14 | 118 | 1.6 | 4.8 | 0.00 | 0.00 | 0.00 | 88 | 1013.0 |
| 20260509060704 | 15 | 118 | 0.0 | 0.0 | 0.00 | 0.00 | 0.00 | 87 | 1013.2 |
| 20260509060203 | 15 | 118 | 0.0 | 0.0 | 0.00 | 0.00 | 0.00 | 87 | 1013.2 |
| 20260509053703 | 15 | 119 | 0.0 | 0.0 | 0.00 | 0.00 | 0.00 | 87 | 1013.2 |
| 20260509053203 | 15 | 119 | 0.0 | 4.8 | 0.00 | 0.00 | 0.00 | 87 | 1013.2 |
| 20260509050704 | 15 | 119 | 0.0 | 3.2 | 0.00 | 0.00 | 0.00 | 86 | 1013.2 |
| 20260509050203 | 16 | 108 | 0.0 | 1.6 | 0.00 | 0.00 | 0.00 | 86 | 1013.3 |
| 20260509043704 | 16 | 89 | 0.0 | 1.6 | 0.00 | 0.00 | 0.00 | 85 | 1013.4 |
| 20260509043204 | 16 | 95 | 0.0 | 1.6 | 0.00 | 0.00 | 0.00 | 85 | 1013.5 |
| 20260509040705 | 16 | 110 | 0.0 | 0.0 | 0.00 | 0.00 | 0.00 | 84 | 1013.3 |
| 20260509040204 | 16 | 35 | 0.0 | 3.2 | 0.00 | 0.00 | 0.00 | 84 | 1013.3 |
| 20260509033704 | 17 | 93 | 1.6 | 3.2 | 0.00 | 0.00 | 0.00 | 83 | 1013.0 |
| 20260509033204 | 17 | 71 | 1.6 | 4.8 | 0.00 | 0.00 | 0.00 | 82 | 1012.9 |
| 20260509030703 | 18 | 127 | 3.2 | 4.8 | 0.00 | 0.00 | 0.00 | 80 | 1012.4 |
| 20260509023704 | 19 | 104 | 0.0 | 4.8 | 0.00 | 0.00 | 0.00 | 76 | 1011.7 |
| 20260509023204 | 19 | 111 | 1.6 | 4.8 | 0.00 | 0.00 | 0.00 | 75 | 1011.6 |
| 20260509020703 | 20 | 105 | 0.0 | 3.2 | 0.00 | 0.00 | 0.00 | 73 | 1010.8 |
| 20260509020204 | 20 | 105 | 1.6 | 4.8 | 0.00 | 0.00 | 0.00 | 73 | 1010.9 |
| 20260509013703 | 21 | 137 | 1.6 | 4.8 | 0.00 | 0.00 | 0.00 | 70 | 1010.5 |
| 20260509013204 | 21 | 141 | 1.6 | 8.0 | 0.00 | 0.00 | 0.00 | 70 | 1010.4 |
| 20260509010704 | 22 | 98 | 4.8 | 9.7 | 0.00 | 0.00 | 0.00 | 69 | 1010.0 |
| 20260509003204 | 23 | 104 | 4.8 | 16.1 | 0.00 | 0.00 | 0.00 | 63 | 1009.4 |
| 20260509000204 | 23 | 148 | 3.2 | 8.0 | 0.00 | 0.00 | 0.00 | 58 | 1008.8 |
| 20260508233703 | 23 | 186 | 0.0 | 3.2 | 0.00 | 0.00 | 0.00 | 58 | 1008.9 |
| 20260508233204 | 23 | 185 | 3.2 | 12.9 | 0.00 | 0.00 | 0.00 | 58 | 1008.8 |
| 20260508230704 | 24 | 201 | 6.4 | 19.3 | 0.00 | 0.00 | 0.00 | 59 | 1007.9 |
| 20260508230203 | 24 | 254 | 1.6 | 24.1 | 0.00 | 0.00 | 0.00 | 60 | 1007.8 |
| 20260508223704 | 27 | 186 | 4.8 | 12.9 | 0.00 | 0.00 | 0.00 | 50 | 1007.4 |
| 20260508223204 | 27 | 190 | 4.8 | 20.9 | 0.00 | 0.00 | 0.00 | 50 | 1006.8 |
| 20260508220703 | 28 | 227 | 4.8 | 11.3 | 0.00 | 0.00 | 0.00 | 48 | 1007.4 |
| 20260508220204 | 29 | 192 | 3.2 | 16.1 | 0.00 | 0.00 | 0.00 | 47 | 1007.3 |